Time;durP1;ratioP1;P1;durP2;ratioP2;P2;SDS_P1;SDS_P2;PMS_P1;PMS_P2;Temp;Humidity;BMP_temperature;BMP_pressure;BME280_temperature;BME280_humidity;BME280_pressure;Samples;Min_cycle;Max_cycle;Signal;HPM_P1;HPM_P2
2022/03/18 05:16:45;;;;;;;13.93;5.28;;;;;;;5.82;65.36;100908.31;2622319;46;20726;-64
2022/03/18 05:19:15;;;;;;;13.55;5.50;;;;;;;5.83;65.60;100909.97;2623228;54;20033;-64
2022/03/18 05:21:44;;;;;;;18.10;4.57;;;;;;;5.82;65.51;100913.56;2623778;54;20061;-66
2022/03/18 05:24:14;;;;;;;13.18;5.32;;;;;;;5.83;65.56;100914.38;2622403;54;20046;-64
2022/03/18 05:26:44;;;;;;;13.95;5.07;;;;;;;5.79;65.97;100913.78;2623073;39;20453;-64
2022/03/18 05:29:15;;;;;;;12.88;4.88;;;;;;;5.82;65.45;100913.56;2621078;54;20031;-65
2022/03/18 05:31:47;;;;;;;10.65;5.38;;;;;;;5.78;65.72;100911.25;2619877;54;20034;-64
2022/03/18 05:34:17;;;;;;;11.75;5.05;;;;;;;5.79;66.00;100918.19;2621693;54;20039;-64
2022/03/18 05:36:47;;;;;;;9.68;5.22;;;;;;;5.75;66.19;100922.81;2622769;54;20069;-63
2022/03/18 05:39:20;;;;;;;17.17;5.57;;;;;;;5.79;66.22;100923.44;2623801;54;20038;-61
2022/03/18 05:41:52;;;;;;;12.50;5.30;;;;;;;5.73;65.69;100927.34;2623605;39;20457;-62
2022/03/18 05:44:22;;;;;;;14.57;6.22;;;;;;;5.71;65.87;100930.09;2623647;54;20061;-63
2022/03/18 05:46:56;;;;;;;12.68;5.22;;;;;;;5.77;65.95;100936.69;2623607;54;20046;-70
2022/03/18 05:49:25;;;;;;;13.23;5.45;;;;;;;5.74;66.12;100934.25;2624566;54;20026;-62
2022/03/18 05:51:55;;;;;;;12.45;5.40;;;;;;;5.77;65.94;100938.47;2622704;47;20037;-64
2022/03/18 05:54:24;;;;;;;12.80;5.45;;;;;;;5.78;65.90;100940.97;2621472;54;20565;-63
2022/03/18 05:56:54;;;;;;;10.88;5.18;;;;;;;5.74;65.81;100944.75;2622089;54;20058;-63
2022/03/18 05:59:25;;;;;;;14.88;5.40;;;;;;;5.76;65.84;100952.53;2622460;54;20033;-62
2022/03/18 06:02:01;;;;;;;16.55;5.75;;;;;;;5.79;65.82;100945.25;2622090;54;20069;-66
2022/03/18 06:04:31;;;;;;;9.57;4.28;;;;;;;5.83;66.02;100951.13;2621569;54;20533;-63
2022/03/18 06:07:01;;;;;;;13.90;6.13;;;;;;;5.83;66.15;100957.22;2622478;54;20035;-62
2022/03/18 06:12:14;;;;;;;10.27;5.70;;;;;;;5.88;65.72;100956.91;2622409;54;20030;-64
2022/03/18 06:14:43;;;;;;;14.60;5.50;;;;;;;5.92;65.52;100948.75;2622111;54;20026;-62
2022/03/18 06:17:16;;;;;;;13.43;5.32;;;;;;;5.90;65.90;100960.25;2621925;54;20046;-62
2022/03/18 06:19:45;;;;;;;14.23;5.93;;;;;;;5.91;65.54;100969.81;2621622;54;20042;-62
2022/03/18 06:22:15;;;;;;;15.35;5.90;;;;;;;5.91;66.11;100972.44;2622794;54;20668;-63
2022/03/18 06:24:44;;;;;;;12.57;5.45;;;;;;;5.94;65.64;100973.09;2623758;54;20057;-62
2022/03/18 06:27:14;;;;;;;17.63;6.28;;;;;;;6.01;65.34;100977.91;2624339;54;20046;-62
2022/03/18 06:29:44;;;;;;;13.48;5.10;;;;;;;6.02;65.46;100987.47;2624487;54;20026;-63
2022/03/18 06:32:16;;;;;;;11.77;6.32;;;;;;;6.00;65.58;100995.44;2623480;47;20023;-63
2022/03/18 06:34:46;;;;;;;13.55;5.43;;;;;;;6.04;65.50;100994.28;2621670;54;20033;-64
2022/03/18 06:37:15;;;;;;;16.95;6.57;;;;;;;6.07;65.59;100993.22;2621693;54;20042;-63
2022/03/18 06:39:46;;;;;;;17.30;5.07;;;;;;;6.07;65.14;100996.66;2621912;54;20042;-63
2022/03/18 06:42:15;;;;;;;13.95;6.32;;;;;;;6.13;65.31;101001.50;2622334;54;20057;-65
2022/03/18 06:44:50;;;;;;;12.65;4.47;;;;;;;6.22;65.12;101001.78;2621808;54;20031;-64
2022/03/18 06:47:22;;;;;;;14.05;5.47;;;;;;;6.20;64.71;101002.75;2623590;54;20092;-62
2022/03/18 06:49:52;;;;;;;11.80;5.25;;;;;;;6.23;64.61;101008.72;2622761;54;20046;-62
2022/03/18 06:52:22;;;;;;;17.20;6.30;;;;;;;6.21;65.29;101024.59;2623480;54;20044;-62
2022/03/18 06:54:51;;;;;;;15.90;5.07;;;;;;;6.18;65.08;101020.38;2622712;54;20038;-62
2022/03/18 06:57:21;;;;;;;16.25;5.63;;;;;;;6.14;65.47;101018.91;2622509;54;20038;-63
2022/03/18 06:59:51;;;;;;;14.82;5.60;;;;;;;6.25;64.89;101031.28;2622777;54;20073;-63
2022/03/18 07:02:24;;;;;;;8.73;4.80;;;;;;;6.30;64.96;101028.34;2622564;54;20126;-62
2022/03/18 07:04:55;;;;;;;15.57;4.72;;;;;;;6.41;64.11;101021.34;2622016;54;20040;-66
2022/03/18 07:07:24;;;;;;;14.50;5.25;;;;;;;6.36;64.75;101033.97;2621554;47;20038;-65
2022/03/18 07:09:54;;;;;;;15.35;5.75;;;;;;;6.43;64.43;101037.00;2622393;54;20049;-63
2022/03/18 07:12:23;;;;;;;15.73;6.45;;;;;;;6.48;64.25;101029.59;2622571;54;20619;-62
2022/03/18 07:14:53;;;;;;;19.25;6.60;;;;;;;6.51;63.59;101028.56;2622361;54;20089;-62
2022/03/18 07:20:09;;;;;;;17.92;5.10;;;;;;;6.52;63.35;101041.56;2621413;54;20038;-63
2022/03/18 07:22:38;;;;;;;12.45;5.13;;;;;;;6.49;63.52;101041.81;2621913;54;20061;-63
2022/03/18 07:25:09;;;;;;;13.18;5.20;;;;;;;6.52;63.81;101030.22;2621241;54;20033;-63
2022/03/18 07:27:39;;;;;;;14.70;5.82;;;;;;;6.54;63.85;101036.22;2621031;54;20042;-62
2022/03/18 07:30:10;;;;;;;15.43;6.13;;;;;;;6.58;63.86;101032.44;2620989;54;20046;-63
2022/03/18 07:32:42;;;;;;;16.65;6.05;;;;;;;6.65;63.91;101033.63;2620288;54;20129;-63
2022/03/18 07:35:17;;;;;;;12.10;5.50;;;;;;;6.69;63.50;101029.81;2621224;39;20488;-63
2022/03/18 07:37:48;;;;;;;17.60;6.32;;;;;;;6.73;63.75;101038.31;2624515;54;20118;-63
2022/03/18 07:40:18;;;;;;;14.27;6.15;;;;;;;6.78;63.59;101037.06;2624471;39;20429;-63
2022/03/18 07:42:50;;;;;;;12.35;4.45;;;;;;;6.78;62.59;101044.94;2624333;39;20449;-63
2022/03/18 07:45:22;;;;;;;16.67;5.40;;;;;;;6.70;63.28;101040.25;2622647;46;20118;-63
2022/03/18 07:47:54;;;;;;;20.30;5.32;;;;;;;6.75;63.28;101042.53;2623965;54;20046;-62
2022/03/18 07:50:26;;;;;;;11.77;6.18;;;;;;;6.74;63.42;101048.75;2624080;54;20035;-64
2022/03/18 07:52:58;;;;;;;11.85;5.53;;;;;;;6.81;62.92;101042.06;2624324;54;20050;-63
2022/03/18 07:55:30;;;;;;;19.58;6.63;;;;;;;6.79;62.98;101046.59;2623048;47;20066;-64
2022/03/18 07:58:01;;;;;;;17.13;6.43;;;;;;;6.72;63.19;101042.75;2623956;54;20033;-63
2022/03/18 08:00:30;;;;;;;14.82;6.35;;;;;;;6.75;63.56;101044.31;2624155;54;20081;-62
2022/03/18 08:03:03;;;;;;;15.65;6.53;;;;;;;6.85;63.89;101045.31;2622277;54;20037;-63
2022/03/18 08:05:33;;;;;;;18.08;6.40;;;;;;;6.98;63.53;101040.84;2623989;54;20038;-61
2022/03/18 08:08:02;;;;;;;13.25;6.10;;;;;;;7.08;62.27;101044.44;2623863;54;20061;-62
2022/03/18 08:10:32;;;;;;;13.18;6.22;;;;;;;7.02;62.80;101052.81;2623144;54;20045;-62
2022/03/18 08:13:02;;;;;;;9.55;5.43;;;;;;;7.07;62.94;101049.81;2623524;54;20039;-61
2022/03/18 08:15:31;;;;;;;14.13;5.97;;;;;;;7.13;62.91;101059.88;2623571;39;20383;-61
2022/03/18 08:18:04;;;;;;;12.98;5.57;;;;;;;7.06;62.92;101059.50;2623606;54;20065;-62
2022/03/18 08:20:39;;;;;;;11.98;6.57;;;;;;;7.05;62.38;101065.69;2623818;54;20031;-60
2022/03/18 08:23:09;;;;;;;18.52;7.60;;;;;;;7.05;62.97;101065.69;2624435;54;20073;-63
2022/03/18 08:25:39;;;;;;;16.92;6.95;;;;;;;7.01;63.04;101079.19;2624054;54;20121;-62
2022/03/18 08:28:09;;;;;;;16.13;6.20;;;;;;;6.92;62.88;101072.81;2624173;54;20030;-62
2022/03/18 08:30:40;;;;;;;16.13;7.05;;;;;;;6.95;63.60;101077.88;2622752;54;20554;-61
2022/03/18 08:33:12;;;;;;;16.02;6.40;;;;;;;7.03;62.56;101080.75;2622763;39;20434;-62
2022/03/18 08:35:41;;;;;;;14.10;6.88;;;;;;;6.91;62.96;101081.69;2622263;54;20560;-62
2022/03/18 08:38:11;;;;;;;11.95;6.05;;;;;;;6.99;63.10;101081.13;2623511;39;20514;-62
2022/03/18 08:40:41;;;;;;;13.27;6.70;;;;;;;6.98;62.77;101082.91;2623928;39;20707;-63
2022/03/18 08:43:12;;;;;;;17.35;5.95;;;;;;;7.04;62.82;101081.59;2623516;54;20038;-62
2022/03/18 08:45:42;;;;;;;13.75;6.68;;;;;;;7.07;62.70;101078.75;2623828;54;20038;-62
2022/03/18 08:48:14;;;;;;;18.83;8.05;;;;;;;7.13;63.47;101086.16;2622926;54;20073;-63
2022/03/18 08:50:44;;;;;;;14.48;6.38;;;;;;;7.26;62.50;101083.44;2623867;54;20056;-62
2022/03/18 08:53:13;;;;;;;15.88;6.97;;;;;;;7.25;62.27;101093.13;2624023;54;20038;-62
2022/03/18 08:55:43;;;;;;;18.90;6.70;;;;;;;7.26;62.36;101081.66;2623306;54;20026;-62
2022/03/18 08:58:13;;;;;;;11.82;6.65;;;;;;;7.23;62.18;101084.53;2623266;54;20035;-61
2022/03/18 09:00:43;;;;;;;15.73;6.95;;;;;;;7.20;62.92;101080.34;2623063;46;20049;-62
2022/03/18 09:03:15;;;;;;;12.02;6.80;;;;;;;7.30;62.56;101079.63;2623655;54;20073;-62
2022/03/18 09:05:45;;;;;;;18.25;7.85;;;;;;;7.36;62.35;101076.56;2623051;54;20019;-62
2022/03/18 09:08:15;;;;;;;14.50;7.40;;;;;;;7.42;62.14;101079.53;2623718;54;20030;-62
2022/03/18 09:10:45;;;;;;;16.75;7.68;;;;;;;7.48;62.23;101077.41;2624125;39;20452;-62
2022/03/18 09:13:14;;;;;;;16.02;8.10;;;;;;;7.59;61.98;101093.22;2623362;54;20030;-62
2022/03/18 09:15:44;;;;;;;17.05;7.97;;;;;;;7.69;62.12;101086.28;2623593;39;20527;-63
2022/03/18 09:18:18;;;;;;;14.93;7.20;;;;;;;7.89;62.01;101093.50;2623033;54;20023;-63
2022/03/18 09:20:47;;;;;;;15.05;6.05;;;;;;;8.22;61.36;101096.25;2623183;54;20033;-63
2022/03/18 09:23:17;;;;;;;13.40;7.45;;;;;;;8.33;60.30;101090.97;2622806;54;20083;-64
2022/03/18 09:25:46;;;;;;;16.88;7.25;;;;;;;8.46;60.61;101104.03;2622640;54;20070;-62
2022/03/18 09:28:16;;;;;;;11.68;6.72;;;;;;;8.68;60.10;101102.16;2622115;54;20027;-63
2022/03/18 09:30:52;;;;;;;15.93;6.60;;;;;;;8.63;59.49;101108.78;2622312;54;20034;-63
2022/03/18 09:33:25;;;;;;;11.32;6.07;;;;;;;8.53;58.64;101113.09;2622689;54;20023;-63
2022/03/18 09:35:54;;;;;;;16.25;6.82;;;;;;;8.42;59.34;101104.25;2621557;47;20022;-63
2022/03/18 09:38:24;;;;;;;14.05;6.60;;;;;;;8.46;59.09;101109.31;2623343;39;20461;-63
2022/03/18 09:40:53;;;;;;;15.88;7.25;;;;;;;8.40;58.86;101100.91;2623954;54;20580;-63
2022/03/18 09:43:40;;;;;;;13.55;6.63;;;;;;;8.32;59.34;101095.38;2623575;54;20077;-63
2022/03/18 09:46:12;;;;;;;17.75;8.20;;;;;;;8.41;59.10;101096.50;2623228;54;20038;-63
2022/03/18 09:49:06;;;;;;;16.98;8.10;;;;;;;8.54;59.40;101093.72;2623097;54;20088;-62
2022/03/18 09:51:36;;;;;;;;;;;;;;;8.63;59.17;101101.69;2623147;47;20034;-63
2022/03/18 09:54:28;;;;;;;16.15;7.25;;;;;;;8.77;59.00;101097.09;2623239;54;19943;-63
2022/03/18 09:56:57;;;;;;;19.83;8.25;;;;;;;8.76;58.77;101106.81;2623407;54;20042;-63
2022/03/18 09:59:29;;;;;;;16.58;8.25;;;;;;;8.93;58.78;101100.16;2622321;47;20514;-61
2022/03/18 10:02:37;;;;;;;15.07;7.55;;;;;;;9.17;58.20;101105.22;2623246;54;20041;-63
2022/03/18 10:05:13;;;;;;;15.55;7.90;;;;;;;9.30;57.42;101097.09;2622630;54;20065;-64
2022/03/18 10:07:56;;;;;;;18.65;7.97;;;;;;;9.37;56.83;101088.56;2623053;54;20037;-64
2022/03/18 10:10:28;;;;;;;15.07;7.82;;;;;;;9.39;56.77;101109.56;2622771;54;20597;-62
2022/03/18 10:13:04;;;;;;;15.20;8.32;;;;;;;9.41;56.16;101105.81;2622407;54;20045;-63
2022/03/18 11:14:58;;;;;;;;;;;;;;;9.98;55.86;101100.16;1263744;47;3635938978;31
2022/03/18 11:17:31;;;;;;;15.50;9.27;;;;;;;9.95;55.53;101101.22;2617944;54;19947;-69
2022/03/18 11:20:01;;;;;;;18.25;10.07;;;;;;;9.81;55.97;101104.25;2619116;39;20444;-71
2022/03/18 11:22:33;;;;;;;19.10;11.02;;;;;;;10.07;55.63;101097.53;2617249;47;20042;-70
2022/03/18 11:25:06;;;;;;;15.45;10.77;;;;;;;10.14;55.13;101100.50;2617539;47;20034;-70
2022/03/18 11:27:41;;;;;;;20.75;11.30;;;;;;;10.20;55.02;101096.47;2618361;54;20039;-70
2022/03/18 11:30:21;;;;;;;16.85;9.50;;;;;;;10.25;54.51;101103.06;2618424;54;20533;-69
2022/03/18 11:33:24;;;;;;;21.15;9.77;;;;;;;10.14;55.07;101101.31;2617759;54;20042;-69
2022/03/18 11:36:21;;;;;;;21.50;10.57;;;;;;;10.01;55.47;101097.25;2617772;54;20553;-68
2022/03/18 11:39:03;;;;;;;16.25;9.07;;;;;;;10.12;54.97;101089.19;2617753;47;20041;-70
2022/03/18 11:41:57;;;;;;;17.00;8.95;;;;;;;10.38;54.81;101103.66;2617592;54;20035;-68
2022/03/18 11:44:44;;;;;;;17.50;9.80;;;;;;;10.47;54.20;101093.25;2618427;39;20457;-69
2022/03/18 11:47:38;;;;;;;16.08;10.25;;;;;;;10.49;54.27;101092.13;2618370;54;20026;-69
2022/03/18 11:50:41;;;;;;;16.48;8.85;;;;;;;10.59;53.54;101087.69;2617992;47;20030;-70
2022/03/18 11:53:16;;;;;;;22.48;10.55;;;;;;;10.67;53.52;101081.72;2617582;46;20125;-69
2022/03/18 11:55:47;;;;;;;18.38;9.95;;;;;;;10.81;53.72;101088.41;2618159;54;20042;-69
2022/03/18 11:58:32;;;;;;;16.27;9.68;;;;;;;10.98;53.77;101085.09;2617646;54;20045;-69
2022/03/18 12:01:02;;;;;;;16.95;8.63;;;;;;;11.15;53.17;101070.31;2618396;54;20038;-69
2022/03/18 12:03:33;;;;;;;14.73;8.80;;;;;;;11.27;51.87;101077.13;2618052;54;20058;-70
2022/03/18 12:06:07;;;;;;;18.17;9.60;;;;;;;11.23;52.24;101065.16;2618500;39;20411;-69
2022/03/18 12:09:00;;;;;;;12.88;7.95;;;;;;;11.25;52.26;101067.63;2618819;39;20426;-69
2022/03/18 12:11:32;;;;;;;14.90;9.30;;;;;;;11.19;52.17;101069.06;2619021;39;20427;-69
2022/03/18 12:14:08;;;;;;;14.60;8.73;;;;;;;11.24;52.59;101066.81;2618447;39;20273;-69
2022/03/18 12:16:39;;;;;;;12.23;8.05;;;;;;;11.38;51.90;101062.88;2618342;54;20041;-69
2022/03/18 12:19:28;;;;;;;13.80;9.00;;;;;;;11.40;51.56;101061.75;2618980;39;20423;-68
2022/03/18 12:22:02;;;;;;;15.27;8.80;;;;;;;11.52;51.80;101064.25;2618537;54;20042;-71
2022/03/18 12:24:32;;;;;;;18.73;9.20;;;;;;;11.62;51.60;101063.22;2618105;39;20411;-68
2022/03/18 12:27:02;;;;;;;16.95;7.97;;;;;;;11.34;50.68;101072.06;2618294;54;20030;-67
2022/03/18 12:29:32;;;;;;;14.23;8.35;;;;;;;11.35;51.24;101073.75;2618351;54;20055;-69
2022/03/18 12:32:10;;;;;;;14.63;7.82;;;;;;;11.28;50.89;101064.72;2618230;54;20035;-69
2022/03/18 12:34:49;;;;;;;13.27;6.95;;;;;;;11.24;51.53;101073.91;2618575;39;20485;-68
2022/03/18 12:37:25;;;;;;;14.27;7.53;;;;;;;11.20;51.61;101064.59;2618628;39;20395;-68
2022/03/18 12:40:09;;;;;;;10.77;6.32;;;;;;;11.27;50.57;101074.47;2618180;39;20454;-68
2022/03/18 12:42:48;;;;;;;;;;;;;;;11.13;50.62;101072.25;2618398;54;20045;-69
2022/03/18 12:45:29;;;;;;;12.93;6.43;;;;;;;11.18;50.08;101070.00;2620258;54;19943;-68
2022/03/18 12:48:00;;;;;;;13.27;6.95;;;;;;;10.87;50.79;101066.69;2619938;47;20034;-67
2022/03/18 12:50:31;;;;;;;16.08;9.02;;;;;;;10.94;51.25;101073.09;2620160;54;20064;-68
2022/03/18 12:53:04;;;;;;;15.30;8.40;;;;;;;10.94;51.05;101070.47;2620656;54;20550;-69
2022/03/18 12:55:34;;;;;;;14.25;6.55;;;;;;;11.00;50.29;101069.88;2619325;54;20026;-68
2022/03/18 12:58:17;;;;;;;14.57;8.10;;;;;;;10.84;51.28;101059.84;2618629;54;20698;-68
2022/03/18 13:00:50;;;;;;;13.27;7.35;;;;;;;10.81;50.93;101059.28;2617710;47;20094;-69
2022/03/18 13:03:23;;;;;;;11.90;7.47;;;;;;;10.75;51.00;101062.50;2618357;39;20407;-69
2022/03/18 13:05:54;;;;;;;11.98;7.05;;;;;;;10.76;50.72;101054.44;2617642;54;20225;-70
2022/03/18 13:08:34;;;;;;;13.20;7.70;;;;;;;10.89;50.66;101059.44;2618111;54;20057;-69
2022/03/18 13:11:05;;;;;;;12.13;6.47;;;;;;;10.77;50.26;101061.38;2618208;54;20061;-68
2022/03/18 13:13:36;;;;;;;14.23;6.70;;;;;;;10.65;50.49;101066.00;2619086;39;20431;-68
2022/03/18 13:16:10;;;;;;;13.40;6.68;;;;;;;10.71;49.72;101056.66;2618577;54;20035;-68
2022/03/18 13:18:40;;;;;;;;;;;;;;;10.82;49.53;101059.19;2618317;54;20042;-68
2022/03/18 13:21:11;;;;;;;12.55;6.03;;;;;;;10.84;49.60;101049.28;2618156;54;20563;-69
2022/03/18 13:23:45;;;;;;;9.65;5.60;;;;;;;10.78;48.46;101055.13;2618303;54;20058;-69
2022/03/18 13:26:16;;;;;;;13.20;6.68;;;;;;;10.88;48.91;101042.72;2618226;54;20031;-69
2022/03/18 13:28:47;;;;;;;11.05;5.10;;;;;;;11.20;47.39;101038.13;2618142;54;20031;-67
2022/03/18 13:33:59;;;;;;;13.15;5.07;;;;;;;11.33;46.45;101047.41;2617045;54;20033;-68
2022/03/18 13:36:31;;;;;;;9.25;4.70;;;;;;;11.41;45.61;101047.53;2617458;54;20042;-69
2022/03/18 13:39:07;;;;;;;10.60;4.32;;;;;;;11.49;44.35;101053.94;2618379;54;20047;-69
2022/03/18 13:41:48;;;;;;;9.23;3.78;;;;;;;11.41;45.22;101039.59;2618222;54;20600;-67
2022/03/18 13:44:18;;;;;;;7.40;3.83;;;;;;;11.44;44.31;101032.34;2617959;54;20034;-68
2022/03/18 13:46:59;;;;;;;9.13;4.05;;;;;;;11.48;44.74;101037.22;2616868;54;20133;-68
2022/03/18 13:49:29;;;;;;;8.98;4.20;;;;;;;11.58;44.70;101030.06;2617821;54;20035;-68
2022/03/18 13:52:02;;;;;;;15.10;4.43;;;;;;;11.53;43.00;101028.81;2617788;54;20648;-69
2022/03/18 13:54:42;;;;;;;5.30;3.63;;;;;;;11.51;42.94;101021.03;2617796;54;20026;-68
2022/03/18 13:57:12;;;;;;;8.38;4.07;;;;;;;11.47;42.89;101008.19;2618076;54;20585;-69
2022/03/18 13:59:52;;;;;;;9.75;3.72;;;;;;;11.34;43.45;101012.00;2617866;54;20061;-68
2022/03/18 14:02:25;;;;;;;10.63;3.95;;;;;;;11.41;43.39;101010.47;2617798;54;20034;-68
2022/03/18 14:04:56;;;;;;;6.47;3.00;;;;;;;11.45;42.01;101015.47;2617576;54;20510;-68
2022/03/18 14:07:45;;;;;;;5.82;3.00;;;;;;;11.49;41.09;101019.50;2617990;54;20036;-68
2022/03/18 14:10:19;;;;;;;6.78;3.17;;;;;;;11.37;41.04;101027.59;2617943;54;20026;-68
2022/03/18 14:13:02;;;;;;;7.15;2.55;;;;;;;11.36;40.79;101022.47;2617284;46;20038;-69
2022/03/18 14:15:36;;;;;;;7.53;2.75;;;;;;;11.30;40.51;101018.56;2617653;54;20038;-69
2022/03/18 14:18:08;;;;;;;8.25;3.08;;;;;;;11.37;40.62;101018.84;2617961;54;20082;-69
2022/03/18 14:20:59;;;;;;;5.25;2.38;;;;;;;11.36;40.09;101003.94;2617903;54;20057;-69
2022/03/18 14:23:31;;;;;;;5.88;2.70;;;;;;;11.49;39.50;101006.25;2617288;54;20042;-69
2022/03/18 14:26:10;;;;;;;5.30;2.60;;;;;;;11.47;40.45;101010.84;2618040;54;20257;-68
2022/03/18 14:28:41;;;;;;;6.05;2.65;;;;;;;11.58;39.80;101008.03;2618142;54;20039;-69
2022/03/18 14:31:13;;;;;;;7.43;3.35;;;;;;;11.60;38.44;101000.78;2618058;54;20506;-68
2022/03/18 14:33:43;;;;;;;4.07;2.22;;;;;;;11.64;38.38;101013.59;2617817;54;20027;-70
2022/03/18 14:36:12;;;;;;;5.38;2.42;;;;;;;11.76;37.94;101008.94;2617741;54;20046;-70
2022/03/18 14:38:46;;;;;;;5.25;2.15;;;;;;;11.87;37.11;101000.81;2618987;51;20038;-69
2022/03/18 14:41:21;;;;;;;2.55;1.67;;;;;;;11.99;36.01;101005.91;2618808;54;20035;-71
2022/03/18 14:43:51;;;;;;;5.57;2.05;;;;;;;12.02;35.72;100997.69;2617423;47;20129;-67
2022/03/18 14:46:20;;;;;;;5.28;2.22;;;;;;;12.03;35.54;100996.69;2617937;54;20126;-69
2022/03/18 14:48:50;;;;;;;4.90;2.03;;;;;;;11.94;35.56;100998.41;2617121;54;20074;-69
2022/03/18 14:51:20;;;;;;;5.28;2.50;;;;;;;11.98;35.69;100988.34;2617280;54;20031;-69
2022/03/18 14:53:49;;;;;;;6.45;1.77;;;;;;;12.14;34.90;100999.97;2617670;54;20558;-68
2022/03/18 14:56:19;;;;;;;4.35;1.60;;;;;;;12.29;34.30;100986.22;2617170;47;20038;-66
2022/03/18 14:58:49;;;;;;;4.70;2.45;;;;;;;12.35;33.61;100981.13;2618425;39;20547;-68
2022/03/18 15:01:19;;;;;;;4.15;1.80;;;;;;;12.43;33.00;100974.25;2617801;54;20113;-68
2022/03/18 15:03:49;;;;;;;3.15;1.65;;;;;;;12.46;32.58;100966.81;2617574;54;20565;-67
2022/03/18 15:06:19;;;;;;;3.47;1.60;;;;;;;12.55;32.46;100970.38;2617629;54;20046;-68
2022/03/18 15:08:49;;;;;;;4.90;1.75;;;;;;;12.58;32.53;100962.09;2618411;54;20573;-69
2022/03/18 15:11:18;;;;;;;4.70;1.55;;;;;;;12.66;31.78;100964.00;2618195;54;20031;-68
2022/03/18 15:13:50;;;;;;;4.10;1.70;;;;;;;12.76;31.95;100964.72;2616924;54;20564;-68
2022/03/18 15:16:20;;;;;;;4.75;1.40;;;;;;;12.81;31.12;100957.13;2617624;54;20056;-68
2022/03/18 15:18:50;;;;;;;2.78;1.80;;;;;;;12.89;30.97;100957.19;2617755;54;20038;-69
2022/03/18 15:21:19;;;;;;;4.75;1.33;;;;;;;12.89;30.57;100959.84;2617880;54;20038;-68
2022/03/18 15:23:50;;;;;;;5.90;1.45;;;;;;;12.89;30.01;100970.47;2617857;54;20038;-70
2022/03/18 15:26:20;;;;;;;4.85;1.90;;;;;;;12.94;30.35;100962.91;2617123;47;20037;-70
2022/03/18 15:28:52;;;;;;;3.78;1.63;;;;;;;13.04;29.62;100965.44;2618588;51;20035;-74
2022/03/18 15:31:22;;;;;;;3.20;1.48;;;;;;;13.03;29.91;100961.13;2617926;47;20034;-70
2022/03/18 15:33:52;;;;;;;3.78;2.03;;;;;;;13.00;30.50;100956.13;2617714;54;20105;-70
2022/03/18 15:36:22;;;;;;;7.25;2.25;;;;;;;13.09;30.69;100958.66;2618376;54;20061;-70
2022/03/18 15:38:52;;;;;;;7.72;2.67;;;;;;;12.99;31.00;100959.78;2618354;54;20034;-68
2022/03/18 15:41:22;;;;;;;8.15;2.45;;;;;;;12.85;31.82;100963.81;2622375;54;20062;-68
2022/03/18 15:43:56;;;;;;;5.95;2.20;;;;;;;12.92;31.60;100966.69;2623011;54;20027;-68
2022/03/18 15:46:27;;;;;;;7.05;2.58;;;;;;;13.00;31.92;100964.09;2624356;54;20031;-69
2022/03/18 15:48:57;;;;;;;4.60;2.10;;;;;;;13.09;31.74;100953.34;2624070;54;20074;-69
2022/03/18 15:51:27;;;;;;;7.90;2.10;;;;;;;12.99;31.84;100955.28;2624262;54;20035;-70
2022/03/18 15:53:57;;;;;;;6.30;3.00;;;;;;;12.89;31.86;100955.38;2622988;54;20034;-68
2022/03/18 15:56:27;;;;;;;4.20;2.47;;;;;;;12.85;31.89;100953.19;2623346;54;20045;-69
2022/03/18 15:58:59;;;;;;;6.90;3.13;;;;;;;12.82;32.41;100954.34;2624387;39;20493;-69
2022/03/18 16:01:29;;;;;;;7.28;3.40;;;;;;;12.81;32.27;100946.50;2621247;51;20031;-69
2022/03/18 16:03:58;;;;;;;6.95;2.70;;;;;;;12.71;32.19;100954.59;2619173;39;20537;-69
2022/03/18 16:06:28;;;;;;;8.18;2.40;;;;;;;12.81;32.58;100959.78;2619136;54;20074;-68
2022/03/18 16:08:59;;;;;;;4.25;2.30;;;;;;;12.88;32.39;100956.38;2619042;54;20026;-68
2022/03/18 16:11:29;;;;;;;4.65;2.55;;;;;;;12.87;32.05;100960.00;2618959;54;20518;-70
2022/03/18 16:14:01;;;;;;;4.03;2.30;;;;;;;12.79;32.54;100948.50;2622986;47;20035;-70
2022/03/18 16:16:31;;;;;;;6.07;2.03;;;;;;;12.85;32.08;100959.31;2623912;54;20035;-70
2022/03/18 16:19:01;;;;;;;6.35;2.50;;;;;;;12.82;32.78;100958.81;2623296;54;20050;-70
2022/03/18 16:21:31;;;;;;;6.28;2.50;;;;;;;12.83;32.89;100957.81;2622686;54;20035;-69
2022/03/18 16:24:03;;;;;;;7.00;3.15;;;;;;;12.88;33.05;100959.03;2621370;54;20034;-68
2022/03/18 16:26:34;;;;;;;8.38;2.88;;;;;;;12.96;32.68;100957.41;2621051;54;20037;-68
2022/03/18 16:29:06;;;;;;;6.78;2.70;;;;;;;12.93;33.05;100963.84;2620266;54;20037;-70
2022/03/18 16:31:36;;;;;;;5.65;2.42;;;;;;;13.01;32.86;100963.91;2620739;54;20042;-68
2022/03/18 16:34:05;;;;;;;3.30;2.40;;;;;;;13.11;33.04;100966.50;2621703;47;20167;-70
2022/03/18 16:36:36;;;;;;;10.57;2.78;;;;;;;13.08;32.92;100966.78;2623080;54;20066;-69
2022/03/18 16:39:05;;;;;;;7.18;2.63;;;;;;;13.03;33.54;100969.91;2619147;54;20086;-69
2022/03/18 16:41:35;;;;;;;5.50;2.65;;;;;;;13.08;33.02;100969.44;2619114;54;20040;-70
2022/03/18 16:44:08;;;;;;;7.25;3.03;;;;;;;13.09;33.62;100969.28;2618625;39;20414;-69
2022/03/18 16:49:28;;;;;;;6.22;2.70;;;;;;;13.03;33.05;100969.91;2618601;54;20027;-70
2022/03/18 16:52:03;;;;;;;8.25;3.03;;;;;;;13.00;33.51;100972.88;2619059;54;20125;-69
2022/03/18 16:54:33;;;;;;;4.72;2.33;;;;;;;12.84;33.70;100978.91;2618544;54;20039;-70
2022/03/18 16:57:03;;;;;;;4.57;2.13;;;;;;;12.88;33.94;100976.78;2619307;39;20423;-70
2022/03/18 16:59:35;;;;;;;6.90;3.67;;;;;;;12.87;33.59;100983.06;2618283;39;20454;-69
2022/03/18 17:02:05;;;;;;;8.43;3.47;;;;;;;12.83;33.76;100979.91;2618363;54;20046;-70
2022/03/18 17:04:37;;;;;;;5.95;2.65;;;;;;;12.66;33.89;100985.22;2617413;47;20129;-70
2022/03/18 17:07:07;;;;;;;4.65;2.72;;;;;;;12.49;33.96;100985.09;2617984;39;20697;-70
2022/03/18 17:09:37;;;;;;;6.75;2.70;;;;;;;12.32;34.57;100988.53;2618804;39;20437;-69
2022/03/18 17:12:09;;;;;;;5.25;2.38;;;;;;;12.11;34.98;100997.63;2618738;54;20044;-69
2022/03/18 17:14:41;;;;;;;8.75;3.33;;;;;;;11.96;35.54;100992.94;2617419;46;20040;-69
2022/03/18 17:17:11;;;;;;;6.20;2.95;;;;;;;11.75;35.75;100996.66;2620125;54;20048;-62
2022/03/18 17:19:40;;;;;;;6.80;3.03;;;;;;;11.65;36.19;100995.88;2622537;54;20018;-62
2022/03/18 17:22:14;;;;;;;6.35;2.80;;;;;;;11.55;36.52;101003.00;2622586;54;20042;-64
2022/03/18 17:24:43;;;;;;;5.72;3.10;;;;;;;11.46;36.76;101009.19;2622499;54;20034;-64
2022/03/18 17:27:13;;;;;;;3.85;2.35;;;;;;;11.33;37.00;101007.69;2622074;54;20034;-63
2022/03/18 17:29:45;;;;;;;4.68;2.53;;;;;;;11.29;37.34;101013.41;2622579;54;20034;-61
2022/03/18 17:32:15;;;;;;;9.00;2.53;;;;;;;11.19;37.61;101018.75;2622462;54;20033;-62
2022/03/18 17:34:45;;;;;;;5.97;3.10;;;;;;;11.14;37.80;101023.59;2622166;39;20437;-63
2022/03/18 17:37:15;;;;;;;8.00;3.50;;;;;;;11.07;38.68;101036.59;2622175;54;20078;-63
2022/03/18 17:39:45;;;;;;;6.43;3.10;;;;;;;10.99;38.49;101033.00;2623168;54;20033;-64
2022/03/18 17:42:16;;;;;;;6.65;3.15;;;;;;;10.91;39.20;101039.81;2622631;54;20082;-61
2022/03/18 17:44:49;;;;;;;10.95;3.30;;;;;;;10.84;39.65;101049.28;2621586;54;20023;-63
2022/03/18 17:47:19;;;;;;;7.65;2.85;;;;;;;10.78;39.95;101052.50;2622261;54;20030;-62
2022/03/18 17:49:49;;;;;;;4.57;2.38;;;;;;;10.78;39.67;101051.66;2623179;54;20037;-64
2022/03/18 17:52:19;;;;;;;5.60;3.25;;;;;;;10.67;40.01;101052.63;2622734;54;20035;-64
2022/03/18 17:54:49;;;;;;;9.30;3.33;;;;;;;10.62;40.24;101058.31;2621921;54;20062;-61
2022/03/18 17:57:22;;;;;;;8.48;2.97;;;;;;;10.51;41.12;101063.75;2622188;54;20035;-63
2022/03/18 17:59:55;;;;;;;11.17;3.27;;;;;;;10.50;40.92;101063.88;2623252;54;20746;-63
2022/03/18 18:02:25;;;;;;;8.73;3.13;;;;;;;10.46;41.48;101062.50;2622421;54;20287;-64
2022/03/18 18:04:55;;;;;;;5.68;2.78;;;;;;;10.41;41.58;101069.03;2621814;46;20294;-63
2022/03/18 18:07:25;;;;;;;7.70;3.17;;;;;;;10.38;42.01;101066.63;2623147;54;20716;-62
2022/03/18 18:09:54;;;;;;;5.00;2.92;;;;;;;10.32;42.50;101067.16;2622718;54;20038;-63
2022/03/18 18:12:24;;;;;;;6.95;3.40;;;;;;;10.26;42.30;101066.91;2623008;54;20037;-64
2022/03/18 18:14:56;;;;;;;6.40;3.20;;;;;;;10.22;42.64;101062.81;2621924;54;20027;-63